Terminal Aerodrome Forecast
Issued by NWS Cleveland, OH

Home | Current Version | Previous Version | Text Only | Print | Product List | Glossary Off
Versions: 1 2 3 4 5 6 7 8 9 10 11 12 13 14 15 16 17 18 19 20 21 22

000
FTUS41 KCLE 200338 AAA
TAFERI
TAF AMD
KERI 200338Z 2004/2024 20006KT P6SM SCT120
     FM200500 20008KT P6SM VCTS BKN035CB OVC060
      TEMPO 2005/2007 2SM -TSRA OVC025CB
     FM200700 20008KT P6SM SCT060 BKN120
     FM201600 24014G22KT P6SM VCSH BKN045=

USA.gov is the U.S. government's official web portal to all federal, state and local government web resources and services.